Accueil
METAR-TAF:

METAR-TAF

Aéroports :

Base aérienne Volkel-Uden

Uden, Pays-Bas

latitude: 51-39N, longitude: 005-42E, altitude: 22 m

Observation

Le bulletin a été fait il y a 30 minutes, à 11:25 UTC
Vent 5 kt de sud/sud-est, variant entre sud/sud-ouest et ouest
Température 12°C
Humidité 54%
Pression 1025 hPa
Visibilité 10 km ou plus
pas de nuages en-dessous de 1500 mètres et pas de cumulonimbus.

METAR: EHVK 161125Z AUTO 22009KT 200V260 9999 OVC350 12/03 Q1025 BLU 15005KT CAVOK

Heure: 12:55 (11:55 UTC)

Prévision

Le bulletin a été fait il y a 2 heures et 49 minutes, à 09:06 UTC
Prévision valable du 16 à 10 UTC au 16 à 22 UTC
Vent 7 kt de sud/sud-ouest
Visibilité 10 km ou plus
pas de nuages en-dessous de 1500 mètres et pas de cumulonimbus.

TAF: EHVK 160906Z 1610/1622 20007KT CAVOK

Observations et prévisions météorologiques de plus de 4000 aéroports (messages METAR et TAF).

Les stations disponibles sont représentées par des disques jaunes et rouges sur la carte.

Passer la souris dessus pour voir le nom de la station.

Cliquer dessus pour voir les observations et prévisions météorologiques.

Pour changer de carte: cliquez sur les boutons verts avec une croix noire pour zoomer, sur le bouton vert avec un tiret pour effectuer un zoom arrière, ou sur les flèches vertes pour les cartes adjacentes.


METAR-TAF: